Time;durP1;ratioP1;P1;durP2;ratioP2;P2;SDS_P1;SDS_P2;PMS_P1;PMS_P2;Temp;Humidity;BMP_temperature;BMP_pressure;BME280_temperature;BME280_humidity;BME280_pressure;Samples;Min_cycle;Max_cycle;Signal;HPM_P1;HPM_P2
2022/06/17 00:00:33;;;;;;;13.13;5.95;;;14.20;99.90;;;;;;6276289;22;20015;-89
2022/06/17 00:03:04;;;;;;;10.98;5.22;;;13.50;99.90;;;;;;6275524;22;20435;-88
2022/06/17 00:05:30;;;;;;;10.60;5.40;;;13.40;99.90;;;;;;6276333;22;20487;-89
2022/06/17 00:08:52;;;;;;;11.68;5.50;;;14.00;99.90;;;;;;6274804;22;20078;-88
2022/06/17 00:11:40;;;;;;;11.77;5.57;;;13.40;99.90;;;;;;6218925;23;20055;-89
2022/06/17 00:15:11;;;;;;;11.45;5.60;;;13.40;99.90;;;;;;6219124;23;20012;-89
2022/06/17 00:17:23;;;;;;;11.50;6.07;;;12.70;99.90;;;;;;6217249;23;20027;-89
2022/06/17 00:20:30;;;;;;;11.27;5.53;;;14.30;99.90;;;;;;6218627;23;20020;-89
2022/06/17 00:23:34;;;;;;;11.23;5.82;;;13.70;99.90;;;;;;6217608;23;20039;-89
2022/06/17 00:26:12;;;;;;;11.15;5.78;;;13.80;99.90;;;;;;6245260;23;20077;-89
2022/06/17 00:29:04;;;;;;;10.98;5.68;;;13.20;99.90;;;;;;6218258;23;20027;-89
2022/06/17 00:31:39;;;;;;;11.13;6.38;;;13.70;99.90;;;;;;6217824;23;20008;-89
2022/06/17 00:37:33;;;;;;;12.05;5.93;;;13.50;99.90;;;;;;6243484;23;20032;-89
2022/06/17 00:40:31;;;;;;;11.48;6.20;;;12.70;99.90;;;;;;6217471;23;20523;-89
2022/06/17 00:43:22;;;;;;;12.23;6.10;;;12.60;99.90;;;;;;6244656;23;20087;-90
2022/06/17 00:46:09;;;;;;;11.68;6.75;;;13.00;99.90;;;;;;6243591;23;20444;-89
2022/06/17 00:48:56;;;;;;;12.05;6.53;;;12.90;99.90;;;;;;6242986;23;20445;-89
2022/06/17 00:51:56;;;;;;;11.65;6.50;;;12.90;99.90;;;;;;6243547;23;20020;-89
2022/06/17 00:54:55;;;;;;;14.75;6.90;;;13.00;99.90;;;;;;6219242;23;20050;-89
2022/06/17 00:58:02;;;;;;;12.27;6.53;;;12.90;99.90;;;;;;6219302;23;20016;-89
2022/06/17 01:00:58;;;;;;;12.50;6.78;;;13.10;99.90;;;;;;6122733;23;20370;-89
2022/06/17 01:03:38;;;;;;;13.88;7.35;;;13.40;99.90;;;;;;6123058;23;20346;-90
2022/06/17 01:12:29;;;;;;;13.48;7.22;;;12.80;99.90;;;;;;6123389;23;20086;-91
2022/06/17 01:14:57;;;;;;;13.73;7.35;;;11.80;99.90;;;;;;6121511;23;20026;-89
2022/06/17 01:17:26;;;;;;;12.10;6.82;;;12.40;99.90;;;;;;6097483;23;20018;-89
2022/06/17 01:20:13;;;;;;;14.02;7.60;;;13.40;99.90;;;;;;6243757;23;20020;-90
2022/06/17 01:22:43;;;;;;;15.57;7.20;;;12.70;99.90;;;;;;6218330;23;20016;-90
2022/06/17 01:28:34;;;;;;;14.00;7.78;;;12.70;99.90;;;;;;6242123;23;20547;-89
2022/06/17 01:31:22;;;;;;;13.45;7.53;;;13.80;99.90;;;;;;6219444;23;20052;-90
2022/06/17 01:34:26;;;;;;;12.77;7.55;;;12.70;99.90;;;;;;6243854;23;20023;-90
2022/06/17 01:37:07;;;;;;;13.95;7.32;;;12.70;99.90;;;;;;6246297;23;20012;-89
2022/06/17 01:39:49;;;;;;;12.73;6.95;;;12.70;99.90;;;;;;6219650;23;20016;-90
2022/06/17 01:43:03;;;;;;;12.95;7.47;;;12.60;99.90;;;;;;6219100;23;20012;-90
2022/06/17 01:45:55;;;;;;;15.23;8.43;;;12.60;99.90;;;;;;6218359;23;20522;-90
2022/06/17 01:48:47;;;;;;;13.45;7.90;;;13.20;99.90;;;;;;6217581;23;20012;-90
2022/06/17 01:52:08;;;;;;;14.20;7.85;;;13.40;99.90;;;;;;6247589;23;20020;-90
2022/06/17 01:55:34;;;;;;;14.13;7.57;;;13.10;99.90;;;;;;6116097;23;20020;-90
2022/06/17 01:58:44;;;;;;;13.95;7.78;;;12.50;99.90;;;;;;6128805;23;20118;-89
2022/06/17 02:04:41;;;;;;;13.93;7.82;;;12.50;99.90;;;;;;6252550;22;20078;-89
2022/06/17 02:08:12;;;;;;;13.77;8.00;;;12.40;99.90;;;;;;6276585;22;20091;-90
2022/06/17 02:10:57;;;;;;;14.10;7.85;;;12.40;99.90;;;;;;6275626;22;20087;-91
2022/06/17 02:13:31;;;;;;;15.07;8.75;;;12.40;99.90;;;;;;6250884;22;20146;-89
2022/06/17 02:16:11;;;;;;;;;;;13.20;99.90;;;;;;6248857;22;20287;-89
2022/06/17 02:19:05;;;;;;;15.27;9.10;;;12.00;99.90;;;;;;6276388;22;19924;-90
2022/06/17 02:25:19;;;;;;;16.05;9.25;;;12.10;99.90;;;;;;6216530;22;20022;-89
2022/06/17 02:28:05;;;;;;;16.58;9.25;;;12.80;99.90;;;;;;6248860;22;20031;-89
2022/06/17 02:30:46;;;;;;;14.75;9.25;;;12.30;99.90;;;;;;6276830;22;20019;-89
2022/06/17 02:37:01;;;;;;;14.77;9.00;;;12.90;99.90;;;;;;6249396;22;20020;-89
2022/06/17 02:40:14;;;;;;;15.80;9.07;;;12.30;99.90;;;;;;6249726;22;20030;-89
2022/06/17 02:42:43;;;;;;;16.00;9.02;;;12.30;99.90;;;;;;6249801;22;20020;-89
2022/06/17 02:45:30;;;;;;;15.00;8.90;;;12.80;99.90;;;;;;6274195;22;20015;-91
2022/06/17 02:49:03;;;;;;;14.75;8.68;;;12.20;99.90;;;;;;6275782;22;20016;-89
2022/06/17 02:58:21;;;;;;;13.52;8.43;;;12.20;99.90;;;;;;6272731;22;20027;-89
2022/06/17 03:00:52;;;;;;;16.13;9.43;;;12.10;99.90;;;;;;6275111;22;20325;-89
2022/06/17 03:03:58;;;;;;;14.70;9.40;;;12.80;99.90;;;;;;6249945;22;20020;-89
2022/06/17 03:06:40;;;;;;;16.58;9.88;;;12.10;99.90;;;;;;6249735;22;20051;-89
2022/06/17 03:09:57;;;;;;;15.07;9.13;;;12.10;99.90;;;;;;6197601;22;20019;-89
2022/06/17 03:15:31;;;;;;;18.75;9.90;;;12.90;99.90;;;;;;6277181;22;20020;-89
2022/06/17 03:18:00;;;;;;;16.92;9.45;;;12.20;99.90;;;;;;6248611;22;20325;-89
2022/06/17 03:20:48;;;;;;;15.77;9.20;;;13.30;99.90;;;;;;6280911;22;20015;-89
2022/06/17 03:23:44;;;;;;;15.43;9.02;;;12.70;99.90;;;;;;6249585;22;20391;-89
2022/06/17 03:26:48;;;;;;;16.65;10.05;;;13.20;99.90;;;;;;6248978;22;20015;-89
2022/06/17 03:29:33;;;;;;;14.80;9.02;;;12.10;99.90;;;;;;6249600;22;20051;-89
2022/06/17 03:32:37;;;;;;;15.30;9.77;;;12.10;99.90;;;;;;6249182;22;20015;-90
2022/06/17 03:35:37;;;;;;;;;;;;;;;;;;;;;
2022/06/17 03:39:03;;;;;;;14.98;9.20;;;12.40;99.90;;;;;;6182664;23;20032;-89
2022/06/17 03:42:06;;;;;;;14.23;9.00;;;12.30;99.90;;;;;;6201071;23;20068;-88
2022/06/17 03:45:08;;;;;;;15.55;9.18;;;12.30;99.90;;;;;;6165921;23;20390;-89
2022/06/17 03:48:16;;;;;;;15.48;9.63;;;12.50;99.90;;;;;;6157080;23;20056;-89
2022/06/17 03:50:58;;;;;;;16.55;9.80;;;12.60;99.90;;;;;;6181804;23;20417;-89
2022/06/17 03:53:51;;;;;;;;;;;;;;;;;;;;;
2022/06/17 04:03:56;;;;;;;16.05;9.30;;;13.10;99.90;;;;;;6215841;22;20310;-89
2022/06/17 04:06:43;;;;;;;15.23;9.60;;;13.30;99.90;;;;;;6218545;23;20020;-89
2022/06/17 04:09:39;;;;;;;;;;;;;;;;;;;;;
2022/06/17 04:13:05;;;;;;;15.90;9.13;;;13.50;99.90;;;;;;6146294;23;20021;-90
2022/06/17 04:22:33;;;;;;;16.13;9.55;;;14.70;99.90;;;;;;6218140;23;20017;-89
2022/06/17 04:26:13;;;;;;;16.02;9.60;;;14.40;99.90;;;;;;6273016;22;20022;-90
2022/06/17 04:32:35;;;;;;;15.00;9.35;;;14.40;99.90;;;;;;6122428;23;20025;-90
2022/06/17 04:35:13;;;;;;;17.75;9.38;;;14.10;99.90;;;;;;6122968;23;20221;-90
2022/06/17 04:38:14;;;;;;;17.25;9.25;;;14.30;99.90;;;;;;6097880;23;20464;-90
2022/06/17 04:44:27;;;;;;;17.95;9.32;;;14.60;99.90;;;;;;6275288;22;20024;-89
2022/06/17 04:47:21;;;;;;;16.10;8.88;;;14.80;99.90;;;;;;6248181;22;20196;-90
2022/06/17 04:50:19;;;;;;;15.65;9.43;;;15.00;99.90;;;;;;6247077;22;20016;-89
2022/06/17 04:53:09;;;;;;;14.88;9.32;;;15.10;99.90;;;;;;6152366;23;20025;-89
2022/06/17 04:56:00;;;;;;;16.35;9.93;;;16.10;99.90;;;;;;6153389;23;20021;-89
2022/06/17 04:58:38;;;;;;;15.48;9.43;;;15.20;99.90;;;;;;6126765;23;20017;-89
2022/06/17 05:07:08;;;;;;;16.50;10.45;;;15.40;99.90;;;;;;6244459;23;20066;-89
2022/06/17 05:10:14;;;;;;;14.68;9.98;;;16.10;99.90;;;;;;6216861;23;20027;-88
2022/06/17 05:13:32;;;;;;;18.70;10.75;;;15.50;99.90;;;;;;6244508;23;20506;-88
2022/06/17 05:15:58;;;;;;;19.80;11.40;;;15.40;99.90;;;;;;6217995;23;20106;-89
2022/06/17 05:18:35;;;;;;;17.80;10.75;;;16.10;99.90;;;;;;6244554;23;20055;-89
2022/06/17 05:21:01;;;;;;;17.60;10.68;;;16.30;99.90;;;;;;6217548;23;20016;-89
2022/06/17 05:24:02;;;;;;;19.10;11.43;;;16.50;99.90;;;;;;6236854;23;20450;-90
2022/06/17 05:26:43;;;;;;;17.25;10.98;;;15.60;99.90;;;;;;6218732;23;20128;-90
2022/06/17 05:29:27;;;;;;;19.88;10.85;;;16.30;99.90;;;;;;6218226;23;20024;-90
2022/06/17 05:31:52;;;;;;;;;;;16.30;99.90;;;;;;6217593;23;20325;-91
2022/06/17 05:34:39;;;;;;;17.20;11.20;;;15.80;99.90;;;;;;6244277;23;19981;-90
2022/06/17 05:37:23;;;;;;;18.00;10.95;;;16.50;99.90;;;;;;6217986;23;20042;-90
2022/06/17 05:40:03;;;;;;;;;;;16.20;99.90;;;;;;6244679;23;20444;-88
2022/06/17 05:42:29;;;;;;;15.95;10.32;;;15.90;99.90;;;;;;6245872;23;19918;-89
2022/06/17 05:51:27;;;;;;;17.27;10.68;;;16.30;99.90;;;;;;6275971;22;20395;-89
2022/06/17 05:54:59;;;;;;;19.48;10.93;;;16.40;99.90;;;;;;6247529;22;20351;-90
2022/06/17 05:58:33;;;;;;;18.20;10.98;;;16.50;99.90;;;;;;6276801;22;20016;-90
2022/06/17 06:01:58;;;;;;;17.75;10.45;;;16.40;99.90;;;;;;6257869;22;20031;-95
2022/06/17 06:05:35;;;;;;;16.55;10.95;;;16.40;99.90;;;;;;6251108;22;20015;-93
2022/06/17 06:09:09;;;;;;;16.88;10.85;;;16.40;99.90;;;;;;6253633;22;20016;-91
2022/06/17 06:15:11;;;;;;;14.63;10.70;;;17.20;99.90;;;;;;6248853;22;20059;-94
2022/06/17 06:17:49;;;;;;;16.90;11.00;;;16.60;99.90;;;;;;6288136;22;20000;-96
2022/06/17 06:24:05;;;;;;;18.88;11.98;;;16.50;99.90;;;;;;6286325;22;20375;-96
2022/06/17 06:26:57;;;;;;;16.48;11.70;;;16.80;99.90;;;;;;6282350;22;20020;-96
2022/06/17 06:29:45;;;;;;;20.35;11.57;;;16.80;99.90;;;;;;6125546;23;20024;-90
2022/06/17 06:33:14;;;;;;;17.05;11.63;;;16.90;99.90;;;;;;6124463;23;20025;-92
2022/06/17 06:35:39;;;;;;;17.73;12.32;;;16.70;99.90;;;;;;6153550;23;20018;-89
2022/06/17 06:44:50;;;;;;;17.58;11.35;;;17.10;99.90;;;;;;6279900;22;20095;-90
2022/06/17 07:04:10;;;;;;;17.25;10.70;;;17.70;99.90;;;;;;6247462;23;20503;-92
2022/06/17 07:32:52;;;;;;;12.55;7.38;;;19.80;99.90;;;;;;6094562;23;20060;-95
2022/06/17 07:41:38;;;;;;;12.20;6.95;;;20.30;99.90;;;;;;6093503;23;20351;-92
2022/06/17 07:44:54;;;;;;;13.40;7.25;;;20.70;99.90;;;;;;6197862;23;20335;-92
2022/06/17 08:04:20;;;;;;;11.70;6.55;;;21.20;99.90;;;;;;6255118;23;20039;-93
2022/06/17 08:06:52;;;;;;;10.50;6.53;;;21.40;99.90;;;;;;6220670;23;20020;-92
2022/06/17 08:09:45;;;;;;;12.73;6.95;;;21.70;99.90;;;;;;6217457;23;20020;-94
2022/06/17 08:12:13;;;;;;;12.32;5.93;;;21.70;99.90;;;;;;6219412;23;20067;-88
2022/06/17 08:14:57;;;;;;;10.73;5.45;;;22.00;99.90;;;;;;6216995;23;20012;-93
2022/06/17 08:17:40;;;;;;;10.05;5.43;;;22.50;99.90;;;;;;6246292;23;20388;-91
2022/06/17 08:20:14;;;;;;;11.27;5.78;;;22.80;99.90;;;;;;6217917;23;20027;-91
2022/06/17 08:25:57;;;;;;;;;;;;;;;;;;;;;
2022/06/17 08:29:05;;;;;;;13.90;6.10;;;22.60;99.90;;;;;;6061272;23;20022;-95
2022/06/17 08:35:55;;;;;;;11.18;5.80;;;22.60;99.90;;;;;;6277885;22;20062;-93
2022/06/17 08:38:49;;;;;;;12.18;5.97;;;22.90;99.90;;;;;;6248611;22;20028;-93
2022/06/17 08:41:58;;;;;;;10.52;5.63;;;22.80;99.90;;;;;;6249016;22;20016;-92
2022/06/17 08:48:20;;;;;;;14.75;5.57;;;23.40;99.90;;;;;;6273483;22;20385;-94
2022/06/17 08:51:12;;;;;;;10.10;5.93;;;23.50;99.90;;;;;;6265526;22;20016;-93
2022/06/17 08:54:15;;;;;;;11.77;5.75;;;23.20;99.90;;;;;;6237196;22;20016;-90
2022/06/17 08:57:34;;;;;;;13.80;5.93;;;23.20;99.90;;;;;;6250350;22;20107;-93
2022/06/17 09:04:11;;;;;;;;;;;;;;;;;;;;;
2022/06/17 09:10:57;;;;;;;9.50;4.82;;;23.80;99.90;;;;;;6247715;22;20471;-91
2022/06/17 09:15:08;;;;;;;9.02;4.30;;;24.00;99.90;;;;;;6251369;22;20018;-92
2022/06/17 09:18:59;;;;;;;11.33;5.20;;;24.30;99.90;;;;;;6245319;22;20051;-93
2022/06/17 09:22:32;;;;;;;10.90;5.05;;;24.40;99.80;;;;;;6275341;22;20392;-92
2022/06/17 09:26:05;;;;;;;;;;;;;;;;;;;;;
2022/06/17 09:29:30;;;;;;;10.52;4.28;;;24.30;99.90;;;;;;6008293;23;20065;-92
2022/06/17 09:32:36;;;;;;;9.00;4.25;;;24.40;99.90;;;;;;6120459;23;20029;-93
2022/06/17 09:35:45;;;;;;;12.55;4.60;;;24.20;99.90;;;;;;6122133;23;20018;-91
2022/06/17 09:38:34;;;;;;;9.18;4.28;;;24.20;99.90;;;;;;6099801;23;20018;-92
2022/06/17 09:45:01;;;;;;;;;;;;;;;;;;;;;
2022/06/17 09:48:52;;;;;;;9.60;4.13;;;24.00;99.90;;;;;;6043715;23;20031;-92
2022/06/17 09:59:16;;;;;;;10.48;4.30;;;24.40;99.90;;;;;;6231840;22;20024;-90
2022/06/17 10:02:44;;;;;;;12.05;4.32;;;24.60;99.90;;;;;;6276679;22;20041;-91
2022/06/17 10:05:54;;;;;;;10.20;3.88;;;25.10;99.80;;;;;;6250474;22;20030;-91
2022/06/17 10:12:34;;;;;;;10.25;3.80;;;25.40;98.20;;;;;;6250149;22;20020;-90
2022/06/17 10:19:24;;;;;;;9.00;4.35;;;25.30;95.40;;;;;;6250315;22;20095;-91
2022/06/17 10:44:33;;;;;;;9.38;4.30;;;24.90;94.20;;;;;;6219455;23;20410;-92
2022/06/17 10:50:50;;;;;;;11.63;4.78;;;25.10;94.90;;;;;;6245975;23;20015;-91
2022/06/17 10:57:37;;;;;;;8.57;4.13;;;25.20;95.20;;;;;;6216037;23;20020;-91
2022/06/17 11:00:30;;;;;;;10.80;4.65;;;25.50;95.90;;;;;;6194299;23;20045;-91
2022/06/17 11:03:41;;;;;;;11.20;4.40;;;25.40;95.30;;;;;;6119252;23;20477;-90
2022/06/17 12:02:28;;;;;;;13.30;4.40;;;26.10;92.80;;;;;;6277946;22;20324;-90
2022/06/17 12:16:31;;;;;;;12.18;4.32;;;26.90;92.80;;;;;;6207545;22;20016;-88
2022/06/17 12:19:36;;;;;;;14.10;4.70;;;26.50;92.30;;;;;;6249474;22;20023;-88
2022/06/17 12:22:42;;;;;;;10.73;4.20;;;26.60;91.10;;;;;;6275296;22;20012;-88
2022/06/17 12:25:45;;;;;;;8.60;3.78;;;26.80;90.50;;;;;;6249109;22;20098;-89
2022/06/17 12:35:27;;;;;;;12.32;4.20;;;27.40;89.00;;;;;;6217441;23;20027;-88
2022/06/17 12:38:23;;;;;;;9.40;4.30;;;28.10;90.20;;;;;;6218367;23;20024;-88
2022/06/17 12:41:07;;;;;;;10.82;4.75;;;28.30;86.40;;;;;;6218360;23;20043;-87
2022/06/17 12:44:34;;;;;;;10.38;4.20;;;28.40;87.20;;;;;;6220314;23;20020;-88
2022/06/17 13:13:42;;;;;;;10.60;3.88;;;29.10;84.50;;;;;;5951564;24;20083;-88
2022/06/17 13:16:35;;;;;;;10.50;4.50;;;29.00;85.20;;;;;;5975344;24;20030;-89
2022/06/17 13:19:56;;;;;;;11.15;4.70;;;29.10;83.50;;;;;;5975211;23;20055;-89
2022/06/17 13:45:44;;;;;;;12.82;4.43;;;29.00;79.80;;;;;;6248688;22;20016;-87
2022/06/17 13:48:33;;;;;;;11.85;4.20;;;28.90;79.70;;;;;;6251141;22;20019;-87
2022/06/17 13:51:46;;;;;;;10.18;4.90;;;29.00;79.80;;;;;;6277818;22;20027;-87
2022/06/17 13:55:03;;;;;;;11.45;4.40;;;29.20;78.10;;;;;;6249953;22;20023;-92
2022/06/17 13:58:20;;;;;;;11.55;4.72;;;29.40;77.90;;;;;;6266389;22;20050;-89
2022/06/17 14:01:26;;;;;;;9.95;4.22;;;29.80;77.70;;;;;;6250530;22;20335;-88
2022/06/17 14:04:01;;;;;;;10.60;4.10;;;30.00;77.50;;;;;;6249860;22;20341;-89
2022/06/17 14:07:04;;;;;;;10.70;4.18;;;30.20;77.70;;;;;;6277227;22;20090;-92
2022/06/17 14:10:16;;;;;;;9.32;4.28;;;30.20;77.70;;;;;;6251212;22;20016;-91
2022/06/17 14:12:58;;;;;;;12.18;4.07;;;30.30;77.60;;;;;;6277756;22;20071;-91
2022/06/17 14:15:37;;;;;;;10.80;3.92;;;30.60;77.00;;;;;;6277278;22;20007;-92
2022/06/17 14:18:39;;;;;;;10.32;3.88;;;30.70;75.20;;;;;;6277088;22;20463;-91
2022/06/17 14:21:19;;;;;;;10.23;4.00;;;30.80;75.60;;;;;;6239374;22;20388;-92
2022/06/17 14:24:14;;;;;;;8.98;3.80;;;30.90;75.20;;;;;;6277762;22;20020;-89
2022/06/17 14:26:54;;;;;;;8.45;4.00;;;30.80;74.70;;;;;;6249694;22;20019;-89
2022/06/17 14:29:30;;;;;;;9.95;3.67;;;30.60;73.50;;;;;;6276308;22;20020;-90
2022/06/17 14:32:17;;;;;;;9.07;3.58;;;30.80;75.00;;;;;;6276555;22;20011;-89
2022/06/17 14:34:51;;;;;;;10.43;3.78;;;30.80;75.00;;;;;;6276031;22;20046;-89
2022/06/17 14:37:55;;;;;;;9.35;4.00;;;30.60;74.40;;;;;;6275955;22;20111;-88
2022/06/17 14:44:47;;;;;;;11.00;3.92;;;30.20;73.70;;;;;;6249686;22;20027;-88
2022/06/17 14:51:38;;;;;;;8.90;3.80;;;30.30;75.70;;;;;;6278447;22;20058;-88
2022/06/17 14:54:44;;;;;;;9.73;3.53;;;30.50;75.70;;;;;;6256832;22;20016;-88
2022/06/17 14:58:06;;;;;;;8.90;3.40;;;30.90;76.60;;;;;;6258883;22;20043;-90
2022/06/17 15:25:36;;;;;;;8.55;3.42;;;30.20;74.50;;;;;;6276566;22;20071;-95
2022/06/17 15:45:36;;;;;;;8.77;3.05;;;30.80;75.20;;;;;;6268146;22;20031;-91
2022/06/17 16:01:46;;;;;;;7.20;2.70;;;29.40;73.90;;;;;;6276120;22;20340;-89
2022/06/17 16:04:35;;;;;;;8.40;2.70;;;29.20;75.80;;;;;;6249476;22;20020;-92
2022/06/17 16:18:47;;;;;;;9.02;3.10;;;28.90;75.10;;;;;;6037579;23;20027;-93
2022/06/17 16:44:42;;;;;;;8.45;3.03;;;29.40;74.60;;;;;;5980172;24;20043;-92
2022/06/17 17:02:14;;;;;;;7.97;2.90;;;29.90;74.90;;;;;;6275855;22;20091;-91
2022/06/17 17:12:57;;;;;;;8.02;2.65;;;31.30;73.00;;;;;;6153096;23;20020;-91
2022/06/17 17:23:19;;;;;;;7.13;2.53;;;31.40;71.30;;;;;;6033615;23;20026;-90
2022/06/17 17:25:54;;;;;;;7.95;3.10;;;31.70;71.80;;;;;;6036366;23;20024;-90
2022/06/17 17:28:36;;;;;;;8.35;3.20;;;31.50;70.60;;;;;;6036315;23;20019;-91
2022/06/17 17:31:05;;;;;;;7.75;2.88;;;31.60;71.30;;;;;;5956515;24;20021;-91
2022/06/17 17:37:31;;;;;;;9.32;2.70;;;31.80;72.40;;;;;;5952136;24;20077;-92
2022/06/17 17:40:12;;;;;;;9.18;2.80;;;32.20;72.40;;;;;;5933596;24;20055;-92
2022/06/17 17:42:53;;;;;;;8.05;2.72;;;32.20;71.00;;;;;;5930376;24;20017;-92
2022/06/17 17:45:40;;;;;;;9.50;2.72;;;32.20;71.10;;;;;;5928507;24;20021;-93
2022/06/17 18:49:59;;;;;;;8.55;2.85;;;28.20;78.00;;;;;;6245006;23;20467;-87
2022/06/17 19:44:28;;;;;;;8.27;3.00;;;24.90;85.60;;;;;;6275383;22;20018;-89
2022/06/17 19:47:43;;;;;;;12.07;3.10;;;24.80;86.20;;;;;;6277439;22;20023;-91
2022/06/17 19:54:01;;;;;;;9.32;2.90;;;24.50;88.00;;;;;;6154632;23;20049;-91
2022/06/17 20:12:04;;;;;;;11.35;3.28;;;23.70;90.50;;;;;;6276847;22;20046;-90
2022/06/17 20:15:25;;;;;;;10.45;3.40;;;23.50;91.10;;;;;;6249827;22;20012;-91
2022/06/17 20:29:55;;;;;;;11.82;3.50;;;22.90;93.10;;;;;;6273827;22;20352;-89
2022/06/17 20:32:39;;;;;;;9.55;3.50;;;22.80;93.00;;;;;;6158774;23;20503;-89
2022/06/17 20:35:23;;;;;;;10.07;3.40;;;22.80;94.00;;;;;;6183020;23;20347;-90
2022/06/17 20:38:05;;;;;;;7.95;3.78;;;22.60;94.60;;;;;;6248057;22;20360;-90
2022/06/17 20:40:44;;;;;;;8.25;3.45;;;22.60;94.60;;;;;;6248739;22;20034;-91
2022/06/17 20:50:23;;;;;;;7.95;3.67;;;22.50;95.90;;;;;;6253360;22;20019;-91
2022/06/17 20:53:04;;;;;;;8.88;3.40;;;22.20;96.60;;;;;;6251264;22;20069;-91
2022/06/17 20:58:36;;;;;;;8.07;3.53;;;22.10;97.70;;;;;;6281712;22;20023;-91
2022/06/17 21:08:53;;;;;;;10.25;3.60;;;21.80;99.60;;;;;;6275927;22;20020;-86
2022/06/17 21:11:22;;;;;;;8.30;3.53;;;21.70;99.90;;;;;;6249432;22;20336;-86
2022/06/17 21:14:04;;;;;;;8.00;3.40;;;21.60;99.80;;;;;;6249590;22;20069;-86
2022/06/17 21:17:32;;;;;;;9.82;3.60;;;21.60;99.90;;;;;;6275054;22;20455;-86
2022/06/17 21:20:55;;;;;;;9.05;3.55;;;21.50;99.90;;;;;;6247045;22;20123;-86
2022/06/17 21:24:20;;;;;;;10.13;3.40;;;21.30;99.90;;;;;;6274835;22;20044;-86
2022/06/17 21:26:46;;;;;;;9.07;3.60;;;21.10;99.90;;;;;;6275031;22;20333;-86
2022/06/17 21:29:24;;;;;;;7.80;3.50;;;21.10;99.90;;;;;;6246838;22;20020;-86
2022/06/17 21:32:02;;;;;;;11.50;3.80;;;21.00;99.90;;;;;;6250255;22;20019;-85
2022/06/17 21:34:38;;;;;;;10.40;3.70;;;21.00;99.90;;;;;;6248735;22;20489;-87
2022/06/17 21:37:22;;;;;;;11.38;3.83;;;20.90;99.90;;;;;;6247490;22;20023;-86
2022/06/17 21:39:48;;;;;;;9.10;3.50;;;20.80;99.90;;;;;;6248997;22;20020;-86
2022/06/17 21:42:14;;;;;;;10.27;3.70;;;21.10;99.90;;;;;;6276155;22;20340;-86
2022/06/17 21:44:39;;;;;;;8.35;3.60;;;20.70;99.90;;;;;;6249422;22;20024;-86
2022/06/17 21:47:05;;;;;;;8.98;3.65;;;20.70;99.90;;;;;;6251243;22;20019;-87
2022/06/17 21:49:31;;;;;;;9.57;3.67;;;20.70;99.90;;;;;;6276981;22;20016;-87
2022/06/17 21:52:00;;;;;;;8.20;3.72;;;20.60;99.90;;;;;;6276443;22;20019;-87
2022/06/17 21:54:33;;;;;;;8.38;3.80;;;20.50;99.90;;;;;;6250513;22;20024;-88
2022/06/17 21:56:59;;;;;;;9.68;3.67;;;20.50;99.90;;;;;;6252984;22;20459;-87
2022/06/17 21:59:39;;;;;;;8.27;3.58;;;20.50;99.90;;;;;;6296483;22;20028;-86
2022/06/17 22:02:10;;;;;;;9.60;3.85;;;20.40;99.90;;;;;;6257127;22;20019;-87
2022/06/17 22:04:35;;;;;;;9.88;4.07;;;20.30;99.90;;;;;;6254482;22;20031;-87
2022/06/17 22:07:01;;;;;;;10.07;3.90;;;20.30;99.90;;;;;;6278762;22;20022;-85
2022/06/17 22:09:27;;;;;;;11.45;4.07;;;20.20;99.90;;;;;;6250281;22;20440;-86
2022/06/17 22:11:59;;;;;;;8.60;3.80;;;20.20;99.90;;;;;;6277426;22;20099;-86
2022/06/17 22:14:29;;;;;;;9.48;4.00;;;20.10;99.90;;;;;;6250144;22;20003;-87
2022/06/17 22:16:57;;;;;;;8.48;4.10;;;20.10;99.90;;;;;;6251227;22;20094;-86
2022/06/17 22:19:23;;;;;;;9.02;4.15;;;20.60;99.90;;;;;;6277270;22;20012;-87
2022/06/17 22:21:48;;;;;;;9.35;3.80;;;20.10;99.90;;;;;;6277790;22;20133;-87
2022/06/17 22:24:19;;;;;;;8.32;3.83;;;20.10;99.90;;;;;;6250761;22;20049;-87
2022/06/17 22:26:45;;;;;;;11.13;4.00;;;20.10;99.90;;;;;;6249474;22;20498;-87
2022/06/17 22:29:21;;;;;;;11.15;4.22;;;20.00;99.90;;;;;;6250769;22;20024;-87
2022/06/17 22:31:47;;;;;;;8.10;3.90;;;20.00;99.90;;;;;;6250323;22;20344;-87
2022/06/17 22:34:13;;;;;;;8.63;3.90;;;19.90;99.90;;;;;;6248699;22;20016;-86
2022/06/17 22:36:39;;;;;;;10.07;3.80;;;19.90;99.90;;;;;;6249547;22;20027;-86
2022/06/17 22:39:11;;;;;;;8.32;3.92;;;20.10;99.90;;;;;;6276943;22;20016;-87
2022/06/17 22:41:36;;;;;;;10.07;4.13;;;19.90;99.90;;;;;;6250183;22;20461;-86
2022/06/17 22:44:03;;;;;;;10.13;3.90;;;20.00;99.90;;;;;;6249911;22;20015;-87
2022/06/17 22:46:28;;;;;;;8.65;4.10;;;19.80;99.90;;;;;;6276951;22;20022;-87
2022/06/17 22:48:54;;;;;;;9.27;4.40;;;19.80;99.90;;;;;;6277174;22;20019;-86
2022/06/17 22:51:21;;;;;;;8.95;4.30;;;19.80;99.90;;;;;;6276034;22;20019;-86
2022/06/17 22:53:50;;;;;;;9.07;4.15;;;19.70;99.90;;;;;;6248752;22;20023;-86
2022/06/17 22:56:18;;;;;;;11.20;4.25;;;19.70;99.90;;;;;;6249998;22;20098;-86
2022/06/17 22:58:44;;;;;;;9.07;4.40;;;19.70;99.90;;;;;;6276615;22;20090;-86
2022/06/17 23:01:17;;;;;;;9.52;4.53;;;19.60;99.90;;;;;;6251571;22;20020;-87
2022/06/17 23:06:31;;;;;;;10.20;4.70;;;19.60;99.90;;;;;;6277332;22;20016;-86
2022/06/17 23:08:57;;;;;;;11.13;4.88;;;19.50;99.90;;;;;;6276727;22;20382;-86
2022/06/17 23:11:23;;;;;;;9.90;4.43;;;19.50;99.90;;;;;;6251767;22;20067;-86
2022/06/17 23:13:49;;;;;;;9.30;4.15;;;19.50;99.90;;;;;;6277964;22;20087;-87
2022/06/17 23:16:19;;;;;;;9.18;4.65;;;19.50;99.90;;;;;;6275444;22;20042;-86
2022/06/17 23:21:33;;;;;;;9.45;4.07;;;19.30;99.90;;;;;;6276267;22;20020;-87
2022/06/17 23:24:00;;;;;;;11.38;4.20;;;19.30;99.90;;;;;;6275759;22;20540;-86
2022/06/17 23:26:27;;;;;;;9.02;4.10;;;19.20;99.90;;;;;;6250876;22;20008;-86
2022/06/17 23:28:53;;;;;;;9.65;4.22;;;19.30;99.90;;;;;;6275893;22;20022;-86
2022/06/17 23:31:28;;;;;;;10.18;4.28;;;19.10;99.90;;;;;;6277048;22;20007;-87
2022/06/17 23:33:55;;;;;;;9.15;4.50;;;19.00;99.90;;;;;;6249062;22;20020;-86
2022/06/17 23:36:23;;;;;;;10.02;4.15;;;19.00;99.90;;;;;;6276093;22;20012;-86
2022/06/17 23:38:52;;;;;;;10.45;4.07;;;18.90;99.90;;;;;;6276456;22;20012;-86
2022/06/17 23:41:21;;;;;;;9.02;4.10;;;18.90;99.90;;;;;;6275993;22;20119;-86
2022/06/17 23:43:47;;;;;;;9.85;4.28;;;18.80;99.90;;;;;;6275543;22;20018;-86
2022/06/17 23:46:16;;;;;;;9.70;4.20;;;18.80;99.90;;;;;;6276388;22;20012;-86
2022/06/17 23:48:46;;;;;;;12.85;4.72;;;18.80;99.90;;;;;;6248687;22;20047;-86
2022/06/17 23:51:15;;;;;;;9.23;4.20;;;18.70;99.90;;;;;;6276234;22;20047;-86
2022/06/17 23:53:41;;;;;;;9.73;4.25;;;18.70;99.90;;;;;;6274995;22;20023;-86
2022/06/17 23:56:09;;;;;;;9.18;4.28;;;18.60;99.90;;;;;;6249472;22;20016;-86
2022/06/17 23:58:57;;;;;;;9.75;4.22;;;18.60;99.90;;;;;;6275778;22;20476;-86
